Stations météo

réclame
Mon MeteoGroup
Cardiff, Grande-Bretagne (3715): Température de l'air & dewpoint: 17.11.2017 11:00:00 - 23.11.2017 11:00:00 (GMT)Cardiff, Grande-Bretagne (3715): Vitesse du vent: 17.11.2017 11:00:00 - 23.11.2017 11:00:00 (GMT)Cardiff, Grande-Bretagne (3715): Direction du vent: 17.11.2017 11:00:00 - 23.11.2017 11:00:00 (GMT)Cardiff, Grande-Bretagne (3715): visibility: 17.11.2017 11:00:00 - 23.11.2017 11:00:00 (GMT)
Date & Time tt [°C] td [°C] ff [km/h] ff [knt] dd vv [km]
23.11.2017 11:00:00 11,0 3,0 44 24 W 10
23.11.2017 10:00:00 9,0 5,0 44 24 W 10
23.11.2017 09:00:00 9,0 4,0 34 18 WSW 10
23.11.2017 08:00:00 8,0 3,0 29 16 W 10
23.11.2017 07:00:00 7,0 4,0 29 16 W 10
23.11.2017 06:00:00 7,0 4,0 22 12 WNW 10
23.11.2017 05:00:00 8,0 6,0 34 18 WNW 10
23.11.2017 04:00:00 9,0 8,0 35 19 WNW 10
23.11.2017 03:00:00 12,0 11,0 24 13 W 10
23.11.2017 02:00:00 13,0 11,0 18 10 SW 10
23.11.2017 01:00:00 13,0 11,0 21 11 SSW 10
23.11.2017 00:00:00 13,0 11,0 24 13 SW 10
22.11.2017 23:00:00 13,0 11,0 24 13 SW 10
22.11.2017 22:00:00 14,0 10,0 31 17 SSW 10
22.11.2017 21:00:00 14,0 11,0 31 17 SSW 10
22.11.2017 20:00:00 14,0 12,0 29 16 SSW 10
22.11.2017 19:00:00 14,0 11,0 28 15 SSW 10
22.11.2017 18:00:00 14,0 11,0 28 15 SSW 10
22.11.2017 17:00:00 14,0 11,0 26 14 S 10
22.11.2017 16:00:00 15,0 11,0 28 15 SSW 10
22.11.2017 15:00:00 14,0 12,0 22 12 S 10
22.11.2017 14:00:00 15,0 12,0 29 16 SSW 10
22.11.2017 13:00:00 14,0 12,0 35 19 SSW 10
22.11.2017 12:00:00 15,0 12,0 34 18 SSW 10
22.11.2017 11:00:00 15,0 11,0 31 17 SSW 10
22.11.2017 10:00:00 14,0 11,0 31 17 SW 10
22.11.2017 09:00:00 14,0 11,0 29 16 SW 10
22.11.2017 08:00:00 14,0 11,0 28 15 SW 10
22.11.2017 07:00:00 14,0 11,0 28 15 SW 10
22.11.2017 06:00:00 14,0 11,0 26 14 SW 10
22.11.2017 05:00:00 14,0 11,0 22 12 SW 10
22.11.2017 04:00:00 13,0 11,0 22 12 SW 10
22.11.2017 03:00:00 13,0 10,0 22 12 WSW 10
22.11.2017 02:00:00 13,0 12,0 24 13 WSW 10
22.11.2017 01:00:00 13,0 13,0 16 9 WSW 10
22.11.2017 00:00:00 13,0 13,0 15 8 WSW 4,7
21.11.2017 23:00:00 13,0 13,0 16 9 WSW 3,7
21.11.2017 22:00:00 13,0 12,0 15 8 WSW 10
21.11.2017 21:00:00 13,0 13,0 16 9 WSW 10
21.11.2017 20:00:00 13,0 12,0 18 10 WSW 10
21.11.2017 19:00:00 13,0 12,0 22 12 WSW 8
21.11.2017 18:00:00 13,0 12,0 22 12 WSW 10
21.11.2017 17:00:00 13,0 12,0 22 12 SW 10
21.11.2017 16:00:00 13,0 11,0 15 8 SW 10
21.11.2017 15:00:00 13,0 11,0 15 8 SW 10
21.11.2017 14:00:00 13,0 11,0 15 8 SW 10
21.11.2017 13:00:00 13,0 11,0 15 8 SW 10
21.11.2017 12:00:00 12,0 10,0 11 6 SW 10
21.11.2017 11:00:00 12,0 10,0 15 8 SW 10
21.11.2017 10:00:00 12,0 10,0 16 9 WSW 10
21.11.2017 09:00:00 12,0 10,0 15 8 WSW 10
21.11.2017 08:00:00 12,0 10,0 15 8 WSW 10
21.11.2017 07:00:00 11,0 10,0 13 7 WSW 10
21.11.2017 06:00:00 12,0 10,0 16 9 WSW 10
21.11.2017 05:00:00 12,0 10,0 16 9 W 10
21.11.2017 04:00:00 12,0 11,0 13 7 W 10
21.11.2017 03:00:00 12,0 11,0 15 8 W 10
21.11.2017 02:00:00 12,0 11,0 18 10 W 10
21.11.2017 01:00:00 12,0 11,0 16 9 W 10
21.11.2017 00:00:00 12,0 12,0 22 12 W 10
20.11.2017 23:00:00 12,0 12,0 24 13 W 10
20.11.2017 22:00:00 12,0 12,0 24 13 W 10
20.11.2017 21:00:00 12,0 12,0 26 14 W 4,1
20.11.2017 20:00:00 12,0 12,0 24 13 W 2,1
20.11.2017 19:00:00 12,0 12,0 26 14 W 2,9
20.11.2017 18:00:00 12,0 12,0 26 14 W 8
20.11.2017 17:00:00 12,0 12,0 24 13 W 2,3
20.11.2017 16:00:00 12,0 12,0 28 15 W 2,4
20.11.2017 15:00:00 12,0 12,0 28 15 W 1,5
20.11.2017 14:00:00 12,0 12,0 28 15 W 3,0
20.11.2017 13:00:00 12,0 12,0 28 15 W 10
20.11.2017 12:00:00 12,0 11,0 28 15 W 8
20.11.2017 11:00:00 12,0 11,0 29 16 W 4,0
20.11.2017 10:00:00 12,0 11,0 26 14 W 10
20.11.2017 09:00:00 12,0 11,0 34 18 W 8
20.11.2017 08:00:00 11,0 11,0 29 16 W 10
20.11.2017 07:00:00 11,0 10,0 29 16 W 10
20.11.2017 06:00:00 11,0 10,0 26 14 WSW 6
20.11.2017 05:00:00 11,0 10,0 28 15 WSW 6
20.11.2017 04:00:00 11,0 9,0 22 12 WSW 10
20.11.2017 03:00:00 11,0 9,0 26 14 WSW 10
20.11.2017 02:00:00 11,0 9,0 21 11 WSW 10
20.11.2017 01:00:00 11,0 9,0 16 9 WSW 10
20.11.2017 00:00:00 11,0 9,0 16 9 WSW 10
19.11.2017 23:00:00 10,0 9,0 16 9 WSW 10
19.11.2017 22:00:00 10,0 9,0 11 6 SSW 10
19.11.2017 21:00:00 10,0 9,0 9 5 SSW 10
19.11.2017 20:00:00 10,0 8,0 8 4 SSW 10
19.11.2017 19:00:00 10,0 8,0 8 4 SW 10
19.11.2017 18:00:00 9,0 7,0 8 4 S 10
19.11.2017 17:00:00 9,0 6,0 8 4 SE 10
19.11.2017 16:00:00 9,0 5,0 2 1 SSE 10
19.11.2017 15:00:00 9,0 5,0 4 2 - 10
19.11.2017 14:00:00 10,0 5,0 5 3 - 10
19.11.2017 13:00:00 9,0 5,0 8 4 SSE 10
19.11.2017 12:00:00 10,0 4,0 5 3 - 10
19.11.2017 11:00:00 9,0 5,0 5 3 N 10
19.11.2017 10:00:00 7,0 4,0 5 3 NW 10
19.11.2017 09:00:00 5,0 4,0 5 3 NNW 10
19.11.2017 08:00:00 5,0 3,0 5 3 NNW 10
19.11.2017 07:00:00 5,0 4,0 5 3 NNW 10
19.11.2017 06:00:00 4,0 3,0 5 3 N 10
19.11.2017 05:00:00 5,0 4,0 8 4 N 10
19.11.2017 04:00:00 5,0 4,0 9 5 N 10
19.11.2017 03:00:00 5,0 4,0 9 5 N 10
19.11.2017 02:00:00 6,0 4,0 8 4 N 10
19.11.2017 01:00:00 6,0 5,0 5 3 N 10
19.11.2017 00:00:00 8,0 5,0 9 5 NE 10
18.11.2017 23:00:00 8,0 6,0 4 2 ENE 10
18.11.2017 22:00:00 8,0 7,0 15 8 NNW 10
18.11.2017 21:00:00 8,0 8,0 13 7 N 10
18.11.2017 20:00:00 10,0 10,0 16 9 NNW 10
18.11.2017 19:00:00 10,0 10,0 15 8 NW 10
18.11.2017 18:00:00 11,0 11,0 15 8 WNW 3,2
18.11.2017 17:00:00 11,0 11,0 24 13 W 1,4
18.11.2017 16:00:00 11,0 11,0 29 16 W 4,0
18.11.2017 15:00:00 12,0 11,0 28 15 W 9
18.11.2017 14:00:00 12,0 11,0 26 14 W 9
18.11.2017 13:00:00 11,0 11,0 28 15 W 10
18.11.2017 12:00:00 12,0 11,0 24 13 W 9
18.11.2017 11:00:00 11,0 10,0 28 15 W 5
18.11.2017 10:00:00 11,0 10,0 24 13 W 5
18.11.2017 09:00:00 11,0 9,0 26 14 W 10
18.11.2017 08:00:00 11,0 9,0 24 13 W 10
18.11.2017 07:00:00 10,0 8,0 24 13 W 10
18.11.2017 06:00:00 9,0 8,0 15 8 W 10
18.11.2017 05:00:00 8,0 6,0 8 4 WNW 10
18.11.2017 04:00:00 7,0 5,0 8 4 WNW 10
18.11.2017 03:00:00 7,0 5,0 9 5 NW 10
18.11.2017 02:00:00 7,0 4,0 5 3 NW 10
18.11.2017 01:00:00 7,0 4,0 11 6 W 10
18.11.2017 00:00:00 6,0 3,0 5 3 W 10
17.11.2017 23:00:00 6,0 3,0 8 4 NW 10
17.11.2017 22:00:00 6,0 3,0 8 4 N 10
17.11.2017 21:00:00 5,0 3,0 5 3 WNW 10
17.11.2017 20:00:00 7,0 2,0 4 2 SSW 10
17.11.2017 19:00:00 4,0 1,0 0 0 N 10
17.11.2017 18:00:00 6,0 1,0 5 3 WNW 10
17.11.2017 17:00:00 6,0 2,0 5 3 NW 10
17.11.2017 16:00:00 6,0 2,0 11 6 NW 10
17.11.2017 15:00:00 8,0 3,0 8 4 WNW 7
17.11.2017 14:00:00 10,0 3,0 5 3 WNW 10
17.11.2017 13:00:00 9,0 2,0 9 5 WNW 10
17.11.2017 12:00:00 9,0 3,0 8 4 WNW 10
17.11.2017 11:00:00 8,0 2,0 5 3 NNW 10

tt = Température de l'air
td = dewpoint
ff = Vitesse du vent
dd = Direction du vent
vv = visibility

stations d'obs. à proximité